Delta Virtual Airport Information Service

Louisville International Airport

ICAO: KSDF Country: United States
Latitude: 38.1741 Longitude: -85.7364
Latest Arrival : DAC2541 (KSFO-KSDF) Latest Departure : SWA1063 (B) (KSDF-KDAL)


WX CaptureLIVE
Data provided by noaa.gov | Fetched at 08:51:37

METAR : KSDF 041300Z 34005KT 10SM OVC010 21/18 A2998 RMK AO2 T02060178

TAF : KSDF 041323Z 0413/0518 34005KT P6SM OVC011 FM041500 32007KT P6SM BKN021 FM041800 32009KT P6SM BKN040 FM042300 32009KT P6SM BKN100 FM050300 35005KT P6SM SCT100


Runway Data for KSDF
Data provided by openaviationdata.com

Runway ID Mag Var Hdg Length Elevation Surface ILS Freq ILS Id ILS Slope
11 -2 113° 7241 ft 501 ft Concrete -- -- --
17L -2 167° 8587 ft 501 ft Concrete 111.95 IPKI 3
17R -2 168° 10010 ft 501 ft Concrete 110.3 ISNU 3
29 -2 293° 7241 ft 501 ft Concrete 109.1 ILKS 3
35L -2 348° 10010 ft 501 ft Concrete 109.35 IRLI 3
35R -2 347° 8587 ft 501 ft Concrete 110.55 IJJM 3

Louisville International Airport, United States
Use only for reference purposes



Not for navigational purposes.